sensor_id;sensor_type;location;lat;lon;timestamp;pressure;altitude;pressure_sealevel;temperature;humidity
16331;BME280;8275;48.206;16.340;2022-09-09T00:00:32;99039.53;;;21.67;48.81
16331;BME280;8275;48.206;16.340;2022-09-09T00:03:10;99043.13;;;21.67;49.04
16331;BME280;8275;48.206;16.340;2022-09-09T00:05:48;99032.31;;;21.66;48.80
16331;BME280;8275;48.206;16.340;2022-09-09T00:08:22;99038.38;;;21.68;48.76
16331;BME280;8275;48.206;16.340;2022-09-09T00:10:58;99039.03;;;21.65;48.73
16331;BME280;8275;48.206;16.340;2022-09-09T00:13:37;99044.97;;;21.63;48.87
16331;BME280;8275;48.206;16.340;2022-09-09T00:16:15;99037.25;;;21.60;49.14
16331;BME280;8275;48.206;16.340;2022-09-09T00:18:55;99037.13;;;21.57;49.14
16331;BME280;8275;48.206;16.340;2022-09-09T00:21:32;99052.69;;;21.58;48.97
16331;BME280;8275;48.206;16.340;2022-09-09T00:24:09;99046.97;;;21.54;48.97
16331;BME280;8275;48.206;16.340;2022-09-09T00:26:44;99039.75;;;21.53;49.40
16331;BME280;8275;48.206;16.340;2022-09-09T00:29:23;99042.41;;;21.50;49.25
16331;BME280;8275;48.206;16.340;2022-09-09T00:31:54;99034.03;;;21.50;49.23
16331;BME280;8275;48.206;16.340;2022-09-09T00:34:26;99036.00;;;21.49;49.32
16331;BME280;8275;48.206;16.340;2022-09-09T00:36:56;99035.16;;;21.49;49.19
16331;BME280;8275;48.206;16.340;2022-09-09T00:39:38;99032.25;;;21.45;49.19
16331;BME280;8275;48.206;16.340;2022-09-09T00:42:15;99033.88;;;21.46;49.15
16331;BME280;8275;48.206;16.340;2022-09-09T00:44:58;99031.75;;;21.43;49.46
16331;BME280;8275;48.206;16.340;2022-09-09T00:47:44;99037.66;;;21.42;49.27
16331;BME280;8275;48.206;16.340;2022-09-09T00:50:30;99039.63;;;21.41;49.38
16331;BME280;8275;48.206;16.340;2022-09-09T00:53:22;99044.41;;;21.41;49.54
16331;BME280;8275;48.206;16.340;2022-09-09T00:56:01;99048.78;;;21.42;49.13
16331;BME280;8275;48.206;16.340;2022-09-09T00:58:34;99048.47;;;21.43;49.05
16331;BME280;8275;48.206;16.340;2022-09-09T01:01:07;99050.44;;;21.43;49.39
16331;BME280;8275;48.206;16.340;2022-09-09T01:03:40;99056.16;;;21.46;49.16
16331;BME280;8275;48.206;16.340;2022-09-09T01:06:21;99050.09;;;21.44;48.96
16331;BME280;8275;48.206;16.340;2022-09-09T01:09:10;99054.06;;;21.43;49.25
16331;BME280;8275;48.206;16.340;2022-09-09T01:11:52;99047.31;;;21.44;49.00
16331;BME280;8275;48.206;16.340;2022-09-09T01:14:42;99048.47;;;21.43;49.22
16331;BME280;8275;48.206;16.340;2022-09-09T01:17:17;99061.41;;;21.48;49.23
16331;BME280;8275;48.206;16.340;2022-09-09T01:20:01;99064.22;;;21.48;49.14
16331;BME280;8275;48.206;16.340;2022-09-09T01:22:36;99072.56;;;21.48;49.08
16331;BME280;8275;48.206;16.340;2022-09-09T01:25:27;99078.47;;;21.46;49.25
16331;BME280;8275;48.206;16.340;2022-09-09T01:28:00;99070.91;;;21.47;48.85
16331;BME280;8275;48.206;16.340;2022-09-09T01:30:31;99066.16;;;21.47;48.74
16331;BME280;8275;48.206;16.340;2022-09-09T01:33:01;99076.84;;;21.45;48.82
16331;BME280;8275;48.206;16.340;2022-09-09T01:35:39;99073.22;;;21.45;48.66
16331;BME280;8275;48.206;16.340;2022-09-09T01:38:11;99080.41;;;21.46;48.50
16331;BME280;8275;48.206;16.340;2022-09-09T01:40:40;99068.78;;;21.44;48.55
16331;BME280;8275;48.206;16.340;2022-09-09T01:43:10;99072.75;;;21.43;48.90
16331;BME280;8275;48.206;16.340;2022-09-09T01:45:39;99079.13;;;21.43;48.81
16331;BME280;8275;48.206;16.340;2022-09-09T01:48:09;99077.16;;;21.44;48.90
16331;BME280;8275;48.206;16.340;2022-09-09T01:50:38;99077.97;;;21.44;49.01
16331;BME280;8275;48.206;16.340;2022-09-09T01:53:06;99081.94;;;21.43;48.61
16331;BME280;8275;48.206;16.340;2022-09-09T01:55:39;99081.41;;;21.41;48.85
16331;BME280;8275;48.206;16.340;2022-09-09T01:58:23;99082.91;;;21.39;48.78
16331;BME280;8275;48.206;16.340;2022-09-09T02:01:02;99077.31;;;21.39;48.82
16331;BME280;8275;48.206;16.340;2022-09-09T02:03:35;99075.34;;;21.39;48.99
16331;BME280;8275;48.206;16.340;2022-09-09T02:06:14;99071.25;;;21.37;48.80
16331;BME280;8275;48.206;16.340;2022-09-09T02:08:49;99070.13;;;21.38;48.60
16331;BME280;8275;48.206;16.340;2022-09-09T02:11:20;99065.38;;;21.38;48.76
16331;BME280;8275;48.206;16.340;2022-09-09T02:13:54;99069.66;;;21.36;48.69
16331;BME280;8275;48.206;16.340;2022-09-09T02:16:26;99066.84;;;21.36;48.67
16331;BME280;8275;48.206;16.340;2022-09-09T02:19:02;99063.25;;;21.35;48.98
16331;BME280;8275;48.206;16.340;2022-09-09T02:21:33;99056.53;;;21.36;48.99
16331;BME280;8275;48.206;16.340;2022-09-09T02:24:06;99058.50;;;21.36;48.65
16331;BME280;8275;48.206;16.340;2022-09-09T02:26:42;99062.13;;;21.36;48.73
16331;BME280;8275;48.206;16.340;2022-09-09T02:29:17;99056.84;;;21.35;48.84
16331;BME280;8275;48.206;16.340;2022-09-09T02:31:47;99055.38;;;21.37;48.76
16331;BME280;8275;48.206;16.340;2022-09-09T02:34:20;99052.09;;;21.35;48.80
16331;BME280;8275;48.206;16.340;2022-09-09T02:36:54;99055.22;;;21.34;49.14
16331;BME280;8275;48.206;16.340;2022-09-09T02:39:23;99059.97;;;21.33;49.02
16331;BME280;8275;48.206;16.340;2022-09-09T02:41:52;99060.63;;;21.30;49.13
16331;BME280;8275;48.206;16.340;2022-09-09T02:44:22;99061.31;;;21.27;48.99
16331;BME280;8275;48.206;16.340;2022-09-09T02:47:15;99064.75;;;21.24;49.21
16331;BME280;8275;48.206;16.340;2022-09-09T02:49:55;99062.78;;;21.25;49.33
16331;BME280;8275;48.206;16.340;2022-09-09T02:52:38;99064.41;;;21.26;49.48
16331;BME280;8275;48.206;16.340;2022-09-09T02:55:20;99071.16;;;21.25;49.29
16331;BME280;8275;48.206;16.340;2022-09-09T02:57:51;99066.53;;;21.29;49.23
16331;BME280;8275;48.206;16.340;2022-09-09T03:00:25;99061.31;;;21.27;49.42
16331;BME280;8275;48.206;16.340;2022-09-09T03:02:55;99071.78;;;21.30;49.55
16331;BME280;8275;48.206;16.340;2022-09-09T03:05:24;99074.25;;;21.32;49.56
16331;BME280;8275;48.206;16.340;2022-09-09T03:07:53;99081.44;;;21.33;49.35
16331;BME280;8275;48.206;16.340;2022-09-09T03:10:21;99074.56;;;21.30;49.31
16331;BME280;8275;48.206;16.340;2022-09-09T03:12:50;99073.75;;;21.30;49.75
16331;BME280;8275;48.206;16.340;2022-09-09T03:15:18;99074.09;;;21.28;49.41
16331;BME280;8275;48.206;16.340;2022-09-09T03:17:49;99082.78;;;21.27;49.75
16331;BME280;8275;48.206;16.340;2022-09-09T03:20:18;99070.31;;;21.24;49.71
16331;BME280;8275;48.206;16.340;2022-09-09T03:22:46;99065.06;;;21.23;49.56
16331;BME280;8275;48.206;16.340;2022-09-09T03:25:15;99086.06;;;21.20;49.48
16331;BME280;8275;48.206;16.340;2022-09-09T03:27:43;99073.28;;;21.19;49.70
16331;BME280;8275;48.206;16.340;2022-09-09T03:30:12;99071.97;;;21.17;49.92
16331;BME280;8275;48.206;16.340;2022-09-09T03:32:41;99071.16;;;21.16;49.88
16331;BME280;8275;48.206;16.340;2022-09-09T03:35:16;99061.47;;;21.14;49.64
16331;BME280;8275;48.206;16.340;2022-09-09T03:37:45;99065.91;;;21.15;49.78
16331;BME280;8275;48.206;16.340;2022-09-09T03:40:14;99062.66;;;21.13;50.06
16331;BME280;8275;48.206;16.340;2022-09-09T03:42:42;99059.03;;;21.12;49.74
16331;BME280;8275;48.206;16.340;2022-09-09T03:45:11;99059.38;;;21.11;49.79
16331;BME280;8275;48.206;16.340;2022-09-09T03:47:39;99071.66;;;21.10;50.21
16331;BME280;8275;48.206;16.340;2022-09-09T03:50:11;99081.19;;;21.09;50.36
16331;BME280;8275;48.206;16.340;2022-09-09T03:52:41;99077.56;;;21.08;50.24
16331;BME280;8275;48.206;16.340;2022-09-09T03:55:10;99070.34;;;21.07;50.40
16331;BME280;8275;48.206;16.340;2022-09-09T03:57:39;99069.03;;;21.05;50.44
16331;BME280;8275;48.206;16.340;2022-09-09T04:00:09;99066.06;;;21.01;50.40
16331;BME280;8275;48.206;16.340;2022-09-09T04:02:38;99070.34;;;20.98;50.35
16331;BME280;8275;48.206;16.340;2022-09-09T04:05:08;99067.06;;;20.96;50.46
16331;BME280;8275;48.206;16.340;2022-09-09T04:07:37;99073.28;;;20.93;50.43
16331;BME280;8275;48.206;16.340;2022-09-09T04:10:08;99074.25;;;20.89;50.36
16331;BME280;8275;48.206;16.340;2022-09-09T04:12:36;99080.47;;;20.86;50.77
16331;BME280;8275;48.206;16.340;2022-09-09T04:15:06;99073.63;;;20.83;50.76
16331;BME280;8275;48.206;16.340;2022-09-09T04:17:35;99068.72;;;20.80;51.02
16331;BME280;8275;48.206;16.340;2022-09-09T04:20:05;99074.09;;;20.77;50.92
16331;BME280;8275;48.206;16.340;2022-09-09T04:22:34;99077.56;;;20.74;50.76
16331;BME280;8275;48.206;16.340;2022-09-09T04:25:03;99076.56;;;20.70;51.08
16331;BME280;8275;48.206;16.340;2022-09-09T04:27:34;99089.19;;;20.67;51.10
16331;BME280;8275;48.206;16.340;2022-09-09T04:30:03;99087.88;;;20.65;51.04
16331;BME280;8275;48.206;16.340;2022-09-09T04:32:32;99086.56;;;20.62;51.03
16331;BME280;8275;48.206;16.340;2022-09-09T04:35:01;99080.50;;;20.60;51.11
16331;BME280;8275;48.206;16.340;2022-09-09T04:37:29;99094.72;;;20.59;51.27
16331;BME280;8275;48.206;16.340;2022-09-09T04:39:58;99110.59;;;20.58;51.37
16331;BME280;8275;48.206;16.340;2022-09-09T04:42:29;99106.19;;;20.57;51.49
16331;BME280;8275;48.206;16.340;2022-09-09T04:44:59;99108.50;;;20.55;51.62
16331;BME280;8275;48.206;16.340;2022-09-09T04:47:28;99107.66;;;20.55;51.37
16331;BME280;8275;48.206;16.340;2022-09-09T04:49:57;99114.34;;;20.54;51.51
16331;BME280;8275;48.206;16.340;2022-09-09T04:52:25;99116.34;;;20.53;51.71
16331;BME280;8275;48.206;16.340;2022-09-09T04:54:53;99119.13;;;20.53;51.52
16331;BME280;8275;48.206;16.340;2022-09-09T04:57:22;99115.53;;;20.53;51.76
16331;BME280;8275;48.206;16.340;2022-09-09T04:59:51;99115.53;;;20.53;51.58
16331;BME280;8275;48.206;16.340;2022-09-09T05:02:20;99115.53;;;20.53;51.71
16331;BME280;8275;48.206;16.340;2022-09-09T05:04:49;99112.41;;;20.54;52.06
16331;BME280;8275;48.206;16.340;2022-09-09T05:07:17;99116.84;;;20.55;51.93
16331;BME280;8275;48.206;16.340;2022-09-09T05:09:46;99117.34;;;20.57;52.17
16331;BME280;8275;48.206;16.340;2022-09-09T05:12:16;99125.03;;;20.60;52.14
16331;BME280;8275;48.206;16.340;2022-09-09T05:14:44;99125.19;;;20.64;51.95
16331;BME280;8275;48.206;16.340;2022-09-09T05:17:13;99127.00;;;20.68;51.81
16331;BME280;8275;48.206;16.340;2022-09-09T05:19:44;99115.88;;;20.68;52.07
16331;BME280;8275;48.206;16.340;2022-09-09T05:22:13;99126.03;;;20.73;52.01
16331;BME280;8275;48.206;16.340;2022-09-09T05:24:41;99123.72;;;20.75;52.01
16331;BME280;8275;48.206;16.340;2022-09-09T05:27:13;99115.84;;;20.77;52.30
16331;BME280;8275;48.206;16.340;2022-09-09T05:29:42;99122.75;;;20.79;51.95
16331;BME280;8275;48.206;16.340;2022-09-09T05:32:11;99115.41;;;20.83;52.21
16331;BME280;8275;48.206;16.340;2022-09-09T05:34:41;99113.09;;;20.85;51.84
16331;BME280;8275;48.206;16.340;2022-09-09T05:37:11;99122.44;;;20.89;52.18
16331;BME280;8275;48.206;16.340;2022-09-09T05:39:39;99131.94;;;20.97;52.09
16331;BME280;8275;48.206;16.340;2022-09-09T05:42:08;99138.97;;;21.03;52.03
16331;BME280;8275;48.206;16.340;2022-09-09T05:44:36;99123.44;;;21.11;52.18
16331;BME280;8275;48.206;16.340;2022-09-09T05:47:05;99122.59;;;21.19;51.78
16331;BME280;8275;48.206;16.340;2022-09-09T05:49:35;99125.88;;;21.29;51.84
16331;BME280;8275;48.206;16.340;2022-09-09T05:52:03;99120.63;;;21.36;51.43
16331;BME280;8275;48.206;16.340;2022-09-09T05:54:34;99129.31;;;21.43;51.91
16331;BME280;8275;48.206;16.340;2022-09-09T05:57:04;99120.91;;;21.52;51.84
16331;BME280;8275;48.206;16.340;2022-09-09T05:59:32;99123.53;;;21.57;51.51
16331;BME280;8275;48.206;16.340;2022-09-09T06:02:01;99126.94;;;21.62;51.55
16331;BME280;8275;48.206;16.340;2022-09-09T06:04:29;99126.78;;;21.67;51.11
16331;BME280;8275;48.206;16.340;2022-09-09T06:06:58;99121.84;;;21.73;51.00
16331;BME280;8275;48.206;16.340;2022-09-09T06:09:26;99113.63;;;21.77;50.85
16331;BME280;8275;48.206;16.340;2022-09-09T06:11:57;99110.50;;;21.78;50.99
16331;BME280;8275;48.206;16.340;2022-09-09T06:14:25;99099.84;;;21.80;51.18
16331;BME280;8275;48.206;16.340;2022-09-09T06:16:54;99096.72;;;21.82;50.66
16331;BME280;8275;48.206;16.340;2022-09-09T06:19:23;99099.66;;;21.85;50.86
16331;BME280;8275;48.206;16.340;2022-09-09T06:21:53;99102.44;;;21.94;50.85
16331;BME280;8275;48.206;16.340;2022-09-09T06:24:22;99104.84;;;22.04;50.92
16331;BME280;8275;48.206;16.340;2022-09-09T06:26:50;99101.34;;;22.15;50.91
16331;BME280;8275;48.206;16.340;2022-09-09T06:29:20;99108.50;;;22.25;50.76
16331;BME280;8275;48.206;16.340;2022-09-09T06:31:49;99101.84;;;22.38;50.57
16331;BME280;8275;48.206;16.340;2022-09-09T06:34:18;99098.81;;;22.52;50.43
16331;BME280;8275;48.206;16.340;2022-09-09T06:36:46;99098.25;;;22.67;50.07
16331;BME280;8275;48.206;16.340;2022-09-09T06:39:14;99088.94;;;22.83;49.93
16331;BME280;8275;48.206;16.340;2022-09-09T06:41:43;99085.28;;;23.03;50.03
16331;BME280;8275;48.206;16.340;2022-09-09T06:44:11;99082.34;;;23.21;49.68
16331;BME280;8275;48.206;16.340;2022-09-09T06:46:41;99089.75;;;23.37;49.68
16331;BME280;8275;48.206;16.340;2022-09-09T06:49:10;99099.94;;;23.54;49.47
16331;BME280;8275;48.206;16.340;2022-09-09T06:51:39;99109.50;;;23.65;49.01
16331;BME280;8275;48.206;16.340;2022-09-09T06:54:10;99105.47;;;23.74;48.93
16331;BME280;8275;48.206;16.340;2022-09-09T06:56:41;99102.91;;;23.82;48.91
16331;BME280;8275;48.206;16.340;2022-09-09T06:59:11;99098.03;;;23.91;48.82
16331;BME280;8275;48.206;16.340;2022-09-09T07:01:42;99094.78;;;24.01;48.51
16331;BME280;8275;48.206;16.340;2022-09-09T07:04:11;99090.38;;;24.12;48.29
16331;BME280;8275;48.206;16.340;2022-09-09T07:06:42;99092.34;;;24.23;48.44
16331;BME280;8275;48.206;16.340;2022-09-09T07:09:14;99093.50;;;24.34;48.01
16331;BME280;8275;48.206;16.340;2022-09-09T07:11:45;99092.69;;;24.46;48.05
16331;BME280;8275;48.206;16.340;2022-09-09T07:14:14;99094.75;;;24.61;47.43
16331;BME280;8275;48.206;16.340;2022-09-09T07:16:45;99097.91;;;24.72;47.38
16331;BME280;8275;48.206;16.340;2022-09-09T07:19:14;99105.38;;;24.80;47.56
16331;BME280;8275;48.206;16.340;2022-09-09T07:21:43;99098.38;;;24.86;47.07
16331;BME280;8275;48.206;16.340;2022-09-09T07:24:12;99096.56;;;24.93;46.89
16331;BME280;8275;48.206;16.340;2022-09-09T07:26:40;99090.63;;;24.95;46.59
16331;BME280;8275;48.206;16.340;2022-09-09T07:29:09;99096.69;;;24.97;46.58
16331;BME280;8275;48.206;16.340;2022-09-09T07:31:47;99095.53;;;24.98;46.37
16331;BME280;8275;48.206;16.340;2022-09-09T07:34:20;99096.31;;;24.98;46.27
16331;BME280;8275;48.206;16.340;2022-09-09T07:36:49;99101.22;;;25.01;45.97
16331;BME280;8275;48.206;16.340;2022-09-09T07:39:17;99104.13;;;25.05;45.98
16331;BME280;8275;48.206;16.340;2022-09-09T07:41:47;99103.16;;;25.13;45.97
16331;BME280;8275;48.206;16.340;2022-09-09T07:44:18;99092.63;;;25.22;45.75
16331;BME280;8275;48.206;16.340;2022-09-09T07:46:49;99094.09;;;25.32;45.71
16331;BME280;8275;48.206;16.340;2022-09-09T07:49:18;99100.72;;;25.39;45.44
16331;BME280;8275;48.206;16.340;2022-09-09T07:51:55;99100.13;;;25.46;45.65
16331;BME280;8275;48.206;16.340;2022-09-09T07:54:24;99105.22;;;25.56;45.58
16331;BME280;8275;48.206;16.340;2022-09-09T07:56:53;99103.53;;;25.67;45.61
16331;BME280;8275;48.206;16.340;2022-09-09T07:59:22;99105.97;;;25.84;45.27
16331;BME280;8275;48.206;16.340;2022-09-09T08:01:52;99104.44;;;26.02;45.20
16331;BME280;8275;48.206;16.340;2022-09-09T08:04:23;99104.84;;;26.16;45.03
16331;BME280;8275;48.206;16.340;2022-09-09T08:06:55;99104.38;;;26.30;45.02
16331;BME280;8275;48.206;16.340;2022-09-09T08:09:26;99106.34;;;26.45;45.02
16331;BME280;8275;48.206;16.340;2022-09-09T08:11:57;99110.28;;;26.60;44.60
16331;BME280;8275;48.206;16.340;2022-09-09T08:14:25;99106.41;;;26.80;44.69
16331;BME280;8275;48.206;16.340;2022-09-09T08:16:56;99107.16;;;26.96;44.59
16331;BME280;8275;48.206;16.340;2022-09-09T08:19:25;99107.97;;;27.15;44.28
16331;BME280;8275;48.206;16.340;2022-09-09T08:21:56;99110.41;;;27.36;43.64
16331;BME280;8275;48.206;16.340;2022-09-09T08:24:24;99099.16;;;27.55;43.60
16331;BME280;8275;48.206;16.340;2022-09-09T08:26:53;99105.56;;;27.75;43.28
16331;BME280;8275;48.206;16.340;2022-09-09T08:29:21;99109.16;;;27.95;43.03
16331;BME280;8275;48.206;16.340;2022-09-09T08:31:52;99111.91;;;28.14;42.45
16331;BME280;8275;48.206;16.340;2022-09-09T08:34:23;99114.63;;;28.29;42.14
16331;BME280;8275;48.206;16.340;2022-09-09T08:36:54;99120.84;;;28.42;41.34
16331;BME280;8275;48.206;16.340;2022-09-09T08:39:23;99114.06;;;28.46;40.81
16331;BME280;8275;48.206;16.340;2022-09-09T08:42:31;99110.06;;;28.47;40.90
16331;BME280;8275;48.206;16.340;2022-09-09T08:45:20;99107.28;;;28.51;40.60
16331;BME280;8275;48.206;16.340;2022-09-09T08:48:19;99102.09;;;28.53;41.07
16331;BME280;8275;48.206;16.340;2022-09-09T08:50:54;99100.66;;;28.63;40.34
16331;BME280;8275;48.206;16.340;2022-09-09T08:53:35;99090.31;;;28.70;39.99
16331;BME280;8275;48.206;16.340;2022-09-09T08:56:12;99088.78;;;28.76;39.98
16331;BME280;8275;48.206;16.340;2022-09-09T08:58:47;99089.28;;;28.82;39.56
16331;BME280;8275;48.206;16.340;2022-09-09T09:01:37;99092.19;;;28.89;39.68
16331;BME280;8275;48.206;16.340;2022-09-09T09:04:22;99089.38;;;28.89;39.60
16331;BME280;8275;48.206;16.340;2022-09-09T09:07:07;99088.53;;;28.88;39.49
16331;BME280;8275;48.206;16.340;2022-09-09T09:09:45;99086.97;;;28.91;39.25
16331;BME280;8275;48.206;16.340;2022-09-09T09:12:20;99081.44;;;28.98;38.79
16331;BME280;8275;48.206;16.340;2022-09-09T09:14:50;99071.84;;;29.06;38.12
16331;BME280;8275;48.206;16.340;2022-09-09T09:17:20;99073.94;;;29.12;37.98
16331;BME280;8275;48.206;16.340;2022-09-09T09:19:50;99077.34;;;29.22;37.95
16331;BME280;8275;48.206;16.340;2022-09-09T09:22:22;99073.38;;;29.26;37.86
16331;BME280;8275;48.206;16.340;2022-09-09T09:24:54;99077.03;;;29.30;37.63
16331;BME280;8275;48.206;16.340;2022-09-09T09:27:32;99079.84;;;29.30;37.44
16331;BME280;8275;48.206;16.340;2022-09-09T09:30:14;99079.88;;;29.34;37.46
16331;BME280;8275;48.206;16.340;2022-09-09T09:32:59;99065.50;;;29.46;37.13
16331;BME280;8275;48.206;16.340;2022-09-09T09:35:28;99070.56;;;29.63;36.73
16331;BME280;8275;48.206;16.340;2022-09-09T09:37:59;99064.59;;;29.75;36.31
16331;BME280;8275;48.206;16.340;2022-09-09T09:40:51;99063.94;;;29.88;35.85
16331;BME280;8275;48.206;16.340;2022-09-09T09:43:25;99057.19;;;29.97;35.48
16331;BME280;8275;48.206;16.340;2022-09-09T09:45:54;99056.06;;;30.08;35.13
16331;BME280;8275;48.206;16.340;2022-09-09T09:48:44;99052.13;;;30.20;35.19
16331;BME280;8275;48.206;16.340;2022-09-09T09:51:22;99055.41;;;30.29;35.09
16331;BME280;8275;48.206;16.340;2022-09-09T09:53:53;99048.69;;;30.40;34.75
16331;BME280;8275;48.206;16.340;2022-09-09T09:56:29;99049.09;;;30.42;34.95
16331;BME280;8275;48.206;16.340;2022-09-09T09:58:57;99048.31;;;30.45;34.81
16331;BME280;8275;48.206;16.340;2022-09-09T10:01:35;99047.50;;;30.45;34.82
16331;BME280;8275;48.206;16.340;2022-09-09T10:04:16;99043.03;;;30.40;35.05
16331;BME280;8275;48.206;16.340;2022-09-09T10:06:47;99036.97;;;30.42;34.92
16331;BME280;8275;48.206;16.340;2022-09-09T10:09:24;99041.00;;;30.41;34.77
16331;BME280;8275;48.206;16.340;2022-09-09T10:12:00;99044.69;;;30.48;34.80
16331;BME280;8275;48.206;16.340;2022-09-09T10:14:37;99050.41;;;30.63;34.53
16331;BME280;8275;48.206;16.340;2022-09-09T10:17:18;99050.50;;;30.77;34.40
16331;BME280;8275;48.206;16.340;2022-09-09T10:20:04;99038.88;;;30.92;34.26
16331;BME280;8275;48.206;16.340;2022-09-09T10:22:42;99035.75;;;31.11;34.04
16331;BME280;8275;48.206;16.340;2022-09-09T10:25:37;99040.66;;;31.25;33.69
16331;BME280;8275;48.206;16.340;2022-09-09T10:28:33;99039.47;;;31.37;33.92
16331;BME280;8275;48.206;16.340;2022-09-09T10:31:18;99038.31;;;31.45;33.89
16331;BME280;8275;48.206;16.340;2022-09-09T10:33:55;99041.97;;;31.56;33.37
16331;BME280;8275;48.206;16.340;2022-09-09T10:36:28;99044.00;;;31.62;32.90
16331;BME280;8275;48.206;16.340;2022-09-09T10:39:01;99036.34;;;31.63;32.96
16331;BME280;8275;48.206;16.340;2022-09-09T10:41:44;99041.16;;;31.66;32.82
16331;BME280;8275;48.206;16.340;2022-09-09T10:44:45;99026.63;;;31.74;33.12
16331;BME280;8275;48.206;16.340;2022-09-09T10:47:46;99038.38;;;31.90;32.83
16331;BME280;8275;48.206;16.340;2022-09-09T10:50:50;99036.41;;;32.09;33.13
16331;BME280;8275;48.206;16.340;2022-09-09T10:53:51;99032.31;;;32.31;32.90
16331;BME280;8275;48.206;16.340;2022-09-09T10:56:22;99038.78;;;32.60;31.92
16331;BME280;8275;48.206;16.340;2022-09-09T10:58:57;99043.19;;;32.82;31.85
16331;BME280;8275;48.206;16.340;2022-09-09T11:01:34;99043.16;;;33.03;31.55
16331;BME280;8275;48.206;16.340;2022-09-09T11:04:10;99047.97;;;33.13;31.28
16331;BME280;8275;48.206;16.340;2022-09-09T11:06:49;99044.25;;;33.27;30.90
16331;BME280;8275;48.206;16.340;2022-09-09T11:09:23;99031.63;;;33.35;30.99
16331;BME280;8275;48.206;16.340;2022-09-09T11:11:54;99030.38;;;33.43;30.29
16331;BME280;8275;48.206;16.340;2022-09-09T11:14:29;99037.31;;;33.38;30.56
16331;BME280;8275;48.206;16.340;2022-09-09T11:17:08;99044.22;;;33.34;30.62
16331;BME280;8275;48.206;16.340;2022-09-09T11:19:41;99032.47;;;33.28;30.12
16331;BME280;8275;48.206;16.340;2022-09-09T11:22:20;99035.75;;;33.27;30.90
16331;BME280;8275;48.206;16.340;2022-09-09T11:24:56;99032.44;;;33.35;30.33
16331;BME280;8275;48.206;16.340;2022-09-09T11:27:36;99034.03;;;33.40;30.19
16331;BME280;8275;48.206;16.340;2022-09-09T11:30:30;99033.69;;;33.31;30.44
16331;BME280;8275;48.206;16.340;2022-09-09T11:33:51;99036.13;;;33.25;30.32
16331;BME280;8275;48.206;16.340;2022-09-09T11:36:54;99034.50;;;33.31;30.28
16331;BME280;8275;48.206;16.340;2022-09-09T11:39:43;99032.00;;;33.40;30.56
16331;BME280;8275;48.206;16.340;2022-09-09T11:42:19;99027.06;;;33.51;29.51
16331;BME280;8275;48.206;16.340;2022-09-09T11:44:48;99025.38;;;33.64;29.24
16331;BME280;8275;48.206;16.340;2022-09-09T11:47:24;99017.09;;;33.87;29.42
16331;BME280;8275;48.206;16.340;2022-09-09T11:50:29;99013.63;;;34.17;29.45
16331;BME280;8275;48.206;16.340;2022-09-09T11:53:21;99005.16;;;34.54;28.52
16331;BME280;8275;48.206;16.340;2022-09-09T11:56:11;99002.47;;;34.78;28.16
16331;BME280;8275;48.206;16.340;2022-09-09T11:58:44;99009.22;;;34.91;27.80
16331;BME280;8275;48.206;16.340;2022-09-09T12:01:37;99014.50;;;34.92;27.60
16331;BME280;8275;48.206;16.340;2022-09-09T12:04:34;99013.16;;;35.04;27.50
16331;BME280;8275;48.206;16.340;2022-09-09T12:07:29;99008.06;;;35.18;27.41
16331;BME280;8275;48.206;16.340;2022-09-09T12:10:03;99016.47;;;35.29;27.20
16331;BME280;8275;48.206;16.340;2022-09-09T12:12:35;99013.00;;;35.45;27.00
16331;BME280;8275;48.206;16.340;2022-09-09T12:15:28;99005.88;;;35.60;27.07
16331;BME280;8275;48.206;16.340;2022-09-09T12:18:00;99004.13;;;35.92;26.41
16331;BME280;8275;48.206;16.340;2022-09-09T12:20:36;98995.28;;;36.33;25.96
16331;BME280;8275;48.206;16.340;2022-09-09T12:23:27;98988.50;;;36.70;25.96
16331;BME280;8275;48.206;16.340;2022-09-09T12:26:07;98993.81;;;37.11;25.52
16331;BME280;8275;48.206;16.340;2022-09-09T12:28:49;98988.22;;;37.23;24.57
16331;BME280;8275;48.206;16.340;2022-09-09T12:31:25;98997.44;;;37.31;24.31
16331;BME280;8275;48.206;16.340;2022-09-09T12:33:55;98992.09;;;37.53;24.03
16331;BME280;8275;48.206;16.340;2022-09-09T12:36:33;98993.81;;;37.66;23.77
16331;BME280;8275;48.206;16.340;2022-09-09T12:39:15;98988.16;;;37.63;23.35
16331;BME280;8275;48.206;16.340;2022-09-09T12:41:52;98991.59;;;37.38;23.47
16331;BME280;8275;48.206;16.340;2022-09-09T12:44:25;98988.66;;;37.02;23.18
16331;BME280;8275;48.206;16.340;2022-09-09T12:46:56;98989.75;;;36.69;23.48
16331;BME280;8275;48.206;16.340;2022-09-09T12:49:31;98981.34;;;36.39;23.41
16331;BME280;8275;48.206;16.340;2022-09-09T12:52:06;98984.34;;;36.09;23.53
16331;BME280;8275;48.206;16.340;2022-09-09T12:54:37;98978.22;;;35.83;23.81
16331;BME280;8275;48.206;16.340;2022-09-09T12:57:11;98979.91;;;35.54;23.82
16331;BME280;8275;48.206;16.340;2022-09-09T12:59:42;98976.25;;;35.23;23.54
16331;BME280;8275;48.206;16.340;2022-09-09T13:02:20;98971.44;;;34.87;23.67
16331;BME280;8275;48.206;16.340;2022-09-09T13:04:53;98967.38;;;34.50;24.03
16331;BME280;8275;48.206;16.340;2022-09-09T13:07:24;98973.09;;;34.10;24.42
16331;BME280;8275;48.206;16.340;2022-09-09T13:09:53;98961.63;;;33.72;24.69
16331;BME280;8275;48.206;16.340;2022-09-09T13:12:23;98963.44;;;33.42;24.70
16331;BME280;8275;48.206;16.340;2022-09-09T13:14:54;98963.63;;;33.10;24.54
16331;BME280;8275;48.206;16.340;2022-09-09T13:17:26;98949.53;;;32.82;25.21
16331;BME280;8275;48.206;16.340;2022-09-09T13:19:56;98953.69;;;32.56;24.87
16331;BME280;8275;48.206;16.340;2022-09-09T13:22:31;98949.69;;;32.29;25.15
16331;BME280;8275;48.206;16.340;2022-09-09T13:25:06;98950.56;;;32.05;25.81
16331;BME280;8275;48.206;16.340;2022-09-09T13:27:51;98956.22;;;31.80;26.05
16331;BME280;8275;48.206;16.340;2022-09-09T13:30:24;98960.69;;;31.63;26.02
16331;BME280;8275;48.206;16.340;2022-09-09T13:33:22;98961.00;;;31.41;26.13
16331;BME280;8275;48.206;16.340;2022-09-09T13:35:55;98973.53;;;31.29;26.63
16331;BME280;8275;48.206;16.340;2022-09-09T13:38:26;98965.41;;;31.13;26.65